createdAt,value
2018-11-27T00:01:23.511Z,15.70
2018-11-27T00:03:58.322Z,15.93
2018-11-27T00:06:40.388Z,16.27
2018-11-27T00:09:15.608Z,16.87
2018-11-27T00:11:50.383Z,17.17
2018-11-27T00:14:25.026Z,17.00
2018-11-27T00:16:59.551Z,16.40
2018-11-27T00:19:34.035Z,17.27
2018-11-27T00:22:08.363Z,16.00
2018-11-27T00:24:42.891Z,16.17
2018-11-27T00:27:17.562Z,16.50
2018-11-27T00:29:52.246Z,16.47
2018-11-27T00:32:26.818Z,16.40
2018-11-27T00:35:01.503Z,16.57
2018-11-27T00:37:36.063Z,16.20
2018-11-27T00:40:13.122Z,16.17
2018-11-27T00:42:47.679Z,16.30
2018-11-27T00:45:22.639Z,16.37
2018-11-27T00:47:57.016Z,16.00
2018-11-27T00:50:31.396Z,16.83
2018-11-27T00:53:06.339Z,16.43
2018-11-27T00:55:40.744Z,17.47
2018-11-27T00:58:15.278Z,18.03
2018-11-27T01:00:49.758Z,18.13
2018-11-27T01:03:24.044Z,17.53
2018-11-27T01:05:58.547Z,17.70
2018-11-27T01:08:33.045Z,17.50
2018-11-27T01:11:08.282Z,17.00
2018-11-27T01:13:42.732Z,17.50
2018-11-27T01:16:17.267Z,17.07
2018-11-27T01:18:51.763Z,17.07
2018-11-27T01:21:26.556Z,17.23
2018-11-27T01:24:00.991Z,17.30
2018-11-27T01:26:35.527Z,17.57
2018-11-27T01:29:10.330Z,18.70
2018-11-27T01:31:44.621Z,18.23
2018-11-27T01:34:18.894Z,17.73
2018-11-27T01:36:53.739Z,17.63
2018-11-27T01:39:28.013Z,18.33
2018-11-27T01:42:02.566Z,18.53
2018-11-27T01:44:36.885Z,17.77
2018-11-27T01:47:11.863Z,17.63
2018-11-27T01:49:46.714Z,17.73
2018-11-27T01:52:21.512Z,18.57
2018-11-27T01:54:56.651Z,18.20
2018-11-27T01:57:30.990Z,18.60
2018-11-27T02:00:36.441Z,17.87
2018-11-27T02:03:10.965Z,18.27
2018-11-27T02:05:45.986Z,17.77
2018-11-27T02:08:20.547Z,17.77
2018-11-27T02:10:55.773Z,18.37
2018-11-27T02:13:30.043Z,17.53
2018-11-27T02:16:05.002Z,17.80
2018-11-27T02:18:39.376Z,17.40
2018-11-27T02:21:14.042Z,17.47
2018-11-27T02:23:49.096Z,18.13
2018-11-27T02:26:24.079Z,17.90
2018-11-27T02:28:58.418Z,16.97
2018-11-27T02:31:33.513Z,18.33
2018-11-27T02:34:08.699Z,17.60
2018-11-27T02:36:43.110Z,17.50
2018-11-27T02:39:17.523Z,17.90
2018-11-27T02:41:51.978Z,18.87
2018-11-27T02:44:26.323Z,16.97
2018-11-27T02:47:00.732Z,17.30
2018-11-27T02:49:35.408Z,17.67
2018-11-27T02:52:09.935Z,17.33
2018-11-27T02:54:44.435Z,17.60
2018-11-27T02:57:19.115Z,18.83
2018-11-27T02:59:53.586Z,18.00
2018-11-27T03:02:28.271Z,17.23
2018-11-27T03:05:03.023Z,18.70
2018-11-27T03:07:37.600Z,18.30
2018-11-27T03:10:15.859Z,18.40
2018-11-27T03:12:50.182Z,18.03
2018-11-27T03:15:24.951Z,18.00
2018-11-27T03:17:59.667Z,17.57
2018-11-27T03:20:33.940Z,18.00
2018-11-27T03:23:08.818Z,17.20
2018-11-27T03:25:43.377Z,18.13
2018-11-27T03:28:18.435Z,17.33
2018-11-27T03:30:53.000Z,18.03
2018-11-27T03:33:27.497Z,17.80
2018-11-27T03:36:01.763Z,18.27
2018-11-27T03:38:36.285Z,18.07
2018-11-27T03:41:11.044Z,18.00
2018-11-27T03:43:45.695Z,18.07
2018-11-27T03:46:20.687Z,19.47
2018-11-27T03:48:55.814Z,18.53
2018-11-27T03:51:30.648Z,17.47
2018-11-27T03:54:05.765Z,17.90
2018-11-27T03:56:40.514Z,18.60
2018-11-27T03:59:15.371Z,19.37
2018-11-27T04:01:50.487Z,18.17
2018-11-27T04:04:24.792Z,19.20
2018-11-27T04:06:59.975Z,18.60
2018-11-27T04:09:34.459Z,17.47
2018-11-27T04:12:09.092Z,18.37
2018-11-27T04:14:43.361Z,17.70
2018-11-27T04:17:20.282Z,17.90
2018-11-27T04:19:55.171Z,18.70
2018-11-27T04:22:29.667Z,17.50
2018-11-27T04:25:04.508Z,18.87
2018-11-27T04:27:39.730Z,17.97
2018-11-27T04:30:18.104Z,18.47
2018-11-27T04:32:52.440Z,17.73
2018-11-27T04:35:27.066Z,18.60
2018-11-27T04:38:01.451Z,17.93
2018-11-27T04:40:36.091Z,17.23
2018-11-27T04:43:10.560Z,17.87
2018-11-27T04:45:45.274Z,18.30
2018-11-27T04:48:19.537Z,17.20
2018-11-27T04:50:54.439Z,17.80
2018-11-27T04:53:29.106Z,17.93
2018-11-27T04:56:03.803Z,18.87
2018-11-27T04:58:38.304Z,17.50
2018-11-27T05:01:12.954Z,18.40
2018-11-27T05:03:47.427Z,18.50
2018-11-27T05:06:22.261Z,19.20
2018-11-27T05:08:56.779Z,17.93
2018-11-27T05:11:31.543Z,19.73
2018-11-27T05:14:07.185Z,18.10
2018-11-27T05:16:41.631Z,18.30
2018-11-27T05:19:16.019Z,19.90
2018-11-27T05:21:50.443Z,20.37
2018-11-27T05:24:24.793Z,19.60
2018-11-27T05:26:59.582Z,19.70
2018-11-27T05:29:34.504Z,19.20
2018-11-27T05:32:09.411Z,18.43
2018-11-27T05:34:43.975Z,20.40
2018-11-27T05:37:19.286Z,20.10
2018-11-27T05:39:54.022Z,19.23
2018-11-27T05:42:28.799Z,20.43
2018-11-27T05:45:03.287Z,22.70
2018-11-27T05:47:38.106Z,20.70
2018-11-27T05:50:13.718Z,21.07
2018-11-27T05:52:48.957Z,22.57
2018-11-27T05:55:23.975Z,20.87
2018-11-27T05:57:58.470Z,20.50
2018-11-27T06:00:33.234Z,21.70
2018-11-27T06:03:09.748Z,22.43
2018-11-27T06:05:44.819Z,23.47
2018-11-27T06:08:19.229Z,20.77
2018-11-27T06:10:53.882Z,20.67
2018-11-27T06:13:28.599Z,21.97
2018-11-27T06:16:03.018Z,20.60
2018-11-27T06:18:37.686Z,20.83
2018-11-27T06:21:12.331Z,19.73
2018-11-27T06:23:46.865Z,20.33
2018-11-27T06:26:21.421Z,20.73
2018-11-27T06:28:55.783Z,21.47
2018-11-27T06:31:30.069Z,20.30
2018-11-27T06:34:04.657Z,20.43
2018-11-27T06:36:39.340Z,20.20
2018-11-27T06:39:13.687Z,19.87
2018-11-27T06:41:48.284Z,20.30
2018-11-27T06:44:22.817Z,20.63
2018-11-27T06:46:57.795Z,21.23
2018-11-27T06:49:33.081Z,21.97
2018-11-27T06:52:07.963Z,21.40
2018-11-27T06:54:42.367Z,22.37
2018-11-27T06:57:16.846Z,20.47
2018-11-27T06:59:51.275Z,21.73
2018-11-27T07:02:26.158Z,21.00
2018-11-27T07:05:00.965Z,20.60
2018-11-27T07:07:35.782Z,21.33
2018-11-27T07:10:18.852Z,20.80
2018-11-27T07:12:55.461Z,21.20
2018-11-27T07:15:29.824Z,22.63
2018-11-27T07:18:05.646Z,21.77
2018-11-27T07:20:40.443Z,20.33
2018-11-27T07:23:14.866Z,21.57
2018-11-27T07:25:49.505Z,22.90
2018-11-27T07:28:23.934Z,22.60
2018-11-27T07:30:58.715Z,21.57
2018-11-27T07:33:33.611Z,22.63
2018-11-27T07:36:08.294Z,22.57
2018-11-27T07:38:42.750Z,23.17
2018-11-27T07:41:17.400Z,22.50
2018-11-27T07:43:52.102Z,25.07
2018-11-27T07:46:26.902Z,24.23
2018-11-27T07:49:01.811Z,23.13
2018-11-27T07:51:36.154Z,23.53
2018-11-27T07:54:10.649Z,23.03
2018-11-27T07:56:45.196Z,24.47
2018-11-27T07:59:19.674Z,22.90
2018-11-27T08:01:54.554Z,24.70
2018-11-27T08:04:29.223Z,26.10
2018-11-27T08:07:04.044Z,24.10
2018-11-27T08:09:38.818Z,22.87
2018-11-27T08:12:13.129Z,23.17
2018-11-27T08:14:47.450Z,25.73
2018-11-27T08:17:21.971Z,23.97
2018-11-27T08:19:56.423Z,24.60
2018-11-27T08:22:31.455Z,23.60
2018-11-27T08:25:08.355Z,25.30
2018-11-27T08:27:42.954Z,23.17
2018-11-27T08:30:18.913Z,23.73
2018-11-27T08:32:55.479Z,29.97
2018-11-27T08:35:30.674Z,26.67
2018-11-27T08:38:05.735Z,28.77
2018-11-27T08:40:40.510Z,30.10
2018-11-27T08:43:14.911Z,26.63
2018-11-27T08:45:49.600Z,27.33
2018-11-27T08:48:24.463Z,23.87
2018-11-27T08:50:59.242Z,24.77
2018-11-27T08:53:33.573Z,25.97
2018-11-27T08:56:08.051Z,26.33
2018-11-27T08:58:42.498Z,23.70
2018-11-27T09:01:17.419Z,24.60
2018-11-27T09:03:52.855Z,25.17
2018-11-27T09:06:27.299Z,25.43
2018-11-27T09:09:01.702Z,23.33
2018-11-27T09:11:36.787Z,26.30
2018-11-27T09:14:11.480Z,22.93
2018-11-27T09:16:45.983Z,25.33
2018-11-27T09:19:20.370Z,22.97
2018-11-27T09:21:55.242Z,23.90
2018-11-27T09:24:30.073Z,25.67
2018-11-27T09:27:04.686Z,23.63
2018-11-27T09:29:39.003Z,22.70
2018-11-27T09:32:13.416Z,23.33
2018-11-27T09:34:48.373Z,23.80
2018-11-27T09:37:23.308Z,25.57
2018-11-27T09:39:57.996Z,21.03
2018-11-27T09:42:32.626Z,21.27
2018-11-27T09:45:09.276Z,22.30
2018-11-27T09:47:44.514Z,21.47
2018-11-27T09:50:19.412Z,23.97
2018-11-27T09:52:53.779Z,20.87
2018-11-27T09:55:28.558Z,21.50
2018-11-27T09:58:03.071Z,20.60
2018-11-27T10:00:37.505Z,21.83
2018-11-27T10:03:14.142Z,23.70
2018-11-27T10:05:48.784Z,21.07
2018-11-27T10:08:23.167Z,22.00
2018-11-27T10:10:57.939Z,22.13
2018-11-27T10:13:32.564Z,20.47
2018-11-27T10:16:07.087Z,21.60
2018-11-27T10:18:41.693Z,21.97
2018-11-27T10:21:16.379Z,23.73
2018-11-27T10:23:50.867Z,20.67
2018-11-27T10:26:25.643Z,20.77
2018-11-27T10:29:00.860Z,21.90
2018-11-27T10:31:35.631Z,22.60
2018-11-27T10:34:09.895Z,22.97
2018-11-27T10:36:44.298Z,23.70
2018-11-27T10:39:18.590Z,25.97
2018-11-27T10:41:53.199Z,24.03
2018-11-27T10:44:27.775Z,25.40
2018-11-27T10:47:02.503Z,25.83
2018-11-27T10:49:38.142Z,26.33
2018-11-27T10:52:11.446Z,23.90
2018-11-27T10:54:45.752Z,24.60
2018-11-27T10:57:20.911Z,25.63
2018-11-27T10:59:55.666Z,25.77
2018-11-27T11:02:34.765Z,27.47
2018-11-27T11:05:09.206Z,26.57
2018-11-27T11:07:43.855Z,27.33
2018-11-27T11:10:18.238Z,27.43
2018-11-27T11:12:53.100Z,30.50
2018-11-27T11:15:27.475Z,27.83
2018-11-27T11:18:01.922Z,26.50
2018-11-27T11:20:36.734Z,28.70
2018-11-27T11:23:11.199Z,27.30
2018-11-27T11:25:45.970Z,27.13
2018-11-27T11:28:22.582Z,29.20
2018-11-27T11:30:56.853Z,29.47
2018-11-27T11:33:31.523Z,30.37
2018-11-27T11:36:06.799Z,28.70
2018-11-27T11:38:41.783Z,31.57
2018-11-27T11:41:16.775Z,33.57
2018-11-27T11:43:51.467Z,30.73
2018-11-27T11:46:25.807Z,31.33
2018-11-27T11:49:01.999Z,33.40
2018-11-27T11:51:35.035Z,31.33
2018-11-27T11:54:09.515Z,32.57
2018-11-27T11:56:43.898Z,34.10
2018-11-27T11:59:18.312Z,33.17
2018-11-27T12:01:52.962Z,34.87
2018-11-27T12:04:27.940Z,36.20
2018-11-27T12:07:02.601Z,33.93
2018-11-27T12:09:38.101Z,36.90
2018-11-27T12:12:12.690Z,35.73
2018-11-27T12:14:47.108Z,36.37
2018-11-27T12:17:22.034Z,36.37
2018-11-27T12:19:56.819Z,37.27
2018-11-27T12:22:31.925Z,34.97
2018-11-27T12:25:09.320Z,35.70
2018-11-27T12:27:43.936Z,34.47
2018-11-27T12:30:23.277Z,34.60
2018-11-27T12:32:57.883Z,34.87
2018-11-27T12:35:33.157Z,33.67
2018-11-27T12:38:07.903Z,35.33
2018-11-27T12:40:42.822Z,34.10
2018-11-27T12:43:17.593Z,33.60
2018-11-27T12:45:52.533Z,34.53
2018-11-27T12:48:27.057Z,36.13
2018-11-27T12:51:01.520Z,36.27
2018-11-27T12:53:36.734Z,33.53
2018-11-27T12:56:11.479Z,33.33
2018-11-27T12:58:46.243Z,34.40
2018-11-27T13:01:21.015Z,33.50
2018-11-27T13:03:55.811Z,35.90
2018-11-27T13:06:30.286Z,37.63
2018-11-27T13:09:08.276Z,33.47
2018-11-27T13:11:42.668Z,37.17
2018-11-27T13:14:17.215Z,41.00
2018-11-27T13:16:52.389Z,38.63
2018-11-27T13:19:26.858Z,35.33
2018-11-27T13:22:01.432Z,37.57
2018-11-27T13:24:36.421Z,34.63
2018-11-27T13:27:11.194Z,36.37
2018-11-27T13:29:46.101Z,34.63
2018-11-27T13:32:20.808Z,33.53
2018-11-27T13:34:55.088Z,36.57
2018-11-27T13:37:29.628Z,32.47
2018-11-27T13:40:04.499Z,33.40
2018-11-27T13:42:39.908Z,33.43
2018-11-27T13:45:15.490Z,33.17
2018-11-27T13:47:50.398Z,35.73
2018-11-27T13:50:25.229Z,35.77
2018-11-27T13:52:59.958Z,35.80
2018-11-27T13:55:34.489Z,34.37
2018-11-27T13:58:09.460Z,36.67
2018-11-27T14:00:44.191Z,34.77
2018-11-27T14:03:18.553Z,39.80
2018-11-27T14:05:53.399Z,34.50
2018-11-27T14:08:29.511Z,34.07
2018-11-27T14:11:04.483Z,35.53
2018-11-27T14:13:40.484Z,32.57
2018-11-27T14:16:16.034Z,35.70
2018-11-27T14:18:51.277Z,36.13
2018-11-27T14:21:25.975Z,34.93
2018-11-27T14:24:00.980Z,37.27
2018-11-27T14:26:36.036Z,39.27
2018-11-27T14:29:10.734Z,39.43
2018-11-27T14:31:45.329Z,34.20
2018-11-27T14:34:19.930Z,35.67
2018-11-27T14:36:54.394Z,37.60
2018-11-27T14:39:30.171Z,35.00
2018-11-27T14:42:04.983Z,34.13
2018-11-27T14:44:39.741Z,35.47
2018-11-27T14:47:14.731Z,40.00
2018-11-27T14:49:49.720Z,35.30
2018-11-27T14:52:24.389Z,36.67
2018-11-27T14:54:59.158Z,36.77
2018-11-27T14:57:34.466Z,37.47
2018-11-27T15:00:13.415Z,34.70
2018-11-27T15:02:48.457Z,34.67
2018-11-27T15:05:25.346Z,36.40
2018-11-27T15:08:00.668Z,35.80
2018-11-27T15:10:35.384Z,32.13
2018-11-27T15:13:10.722Z,32.60
2018-11-27T15:15:45.402Z,33.90
2018-11-27T15:18:20.771Z,34.43
2018-11-27T15:20:55.173Z,33.97
2018-11-27T15:23:30.063Z,35.20
2018-11-27T15:26:06.133Z,35.73
2018-11-27T15:29:08.635Z,34.47
2018-11-27T15:31:43.094Z,35.77
2018-11-27T15:34:18.269Z,36.70
2018-11-27T15:36:52.966Z,37.83
2018-11-27T15:39:27.910Z,36.07
2018-11-27T15:42:02.843Z,36.67
2018-11-27T15:44:37.414Z,37.40
2018-11-27T15:47:11.746Z,35.50
2018-11-27T15:49:46.023Z,34.53
2018-11-27T15:52:20.481Z,36.77
2018-11-27T15:54:55.291Z,33.70
2018-11-27T15:57:29.775Z,34.17
2018-11-27T16:00:04.627Z,34.57
2018-11-27T16:02:39.410Z,34.23
2018-11-27T16:05:14.370Z,36.47
2018-11-27T16:07:49.153Z,35.40
2018-11-27T16:10:24.010Z,34.60
2018-11-27T16:12:58.872Z,33.60
2018-11-27T16:15:33.546Z,36.37
2018-11-27T16:18:08.878Z,34.73
2018-11-27T16:20:43.688Z,35.33
2018-11-27T16:23:18.116Z,33.37
2018-11-27T16:25:52.547Z,50.07
2018-11-27T16:28:27.417Z,48.40
2018-11-27T16:31:02.328Z,42.97
2018-11-27T16:33:37.815Z,45.30
2018-11-27T16:36:12.318Z,48.13
2018-11-27T16:38:47.240Z,44.80
2018-11-27T16:41:21.786Z,44.30
2018-11-27T16:43:56.859Z,46.00
2018-11-27T16:46:31.776Z,46.40
2018-11-27T16:49:06.505Z,45.00
2018-11-27T16:51:41.299Z,45.67
2018-11-27T16:54:15.965Z,39.03
2018-11-27T16:56:50.698Z,40.70
2018-11-27T17:02:02.320Z,39.77
2018-11-27T17:04:37.082Z,37.17
2018-11-27T17:07:15.339Z,34.23
2018-11-27T17:09:53.399Z,32.67
2018-11-27T17:12:27.950Z,31.77
2018-11-27T17:15:02.635Z,29.40
2018-11-27T17:17:37.246Z,29.43
2018-11-27T17:20:27.916Z,31.80
2018-11-27T17:23:04.427Z,32.03
2018-11-27T17:25:39.419Z,28.10
2018-11-27T17:28:15.943Z,30.37
2018-11-27T17:31:08.778Z,31.47
2018-11-27T17:33:51.474Z,28.63
2018-11-27T17:36:26.058Z,28.17
2018-11-27T17:39:00.519Z,29.20
2018-11-27T17:41:35.143Z,26.23
2018-11-27T17:44:14.199Z,25.03
2018-11-27T17:46:49.879Z,27.23
2018-11-27T17:49:24.403Z,27.23
2018-11-27T17:51:59.082Z,25.50
2018-11-27T17:54:33.862Z,25.27
2018-11-27T17:57:10.602Z,22.70
2018-11-27T17:59:45.447Z,26.93
2018-11-27T18:02:20.215Z,24.30
2018-11-27T18:04:55.228Z,24.27
2018-11-27T18:07:29.952Z,27.77
2018-11-27T18:10:07.787Z,25.93
2018-11-27T18:12:44.883Z,23.17
2018-11-27T18:15:20.932Z,22.23
2018-11-27T18:17:55.919Z,23.47
2018-11-27T18:20:30.725Z,24.83
2018-11-27T18:23:05.319Z,24.10
2018-11-27T18:25:40.251Z,24.13
2018-11-27T18:28:15.688Z,23.77
2018-11-27T18:30:50.286Z,23.50
2018-11-27T18:33:24.634Z,22.43
2018-11-27T18:35:59.712Z,22.17
2018-11-27T18:38:34.627Z,21.40
2018-11-27T18:41:09.150Z,21.63
2018-11-27T18:43:43.642Z,22.60
2018-11-27T18:46:18.058Z,24.23
2018-11-27T18:48:52.992Z,21.63
2018-11-27T18:51:27.591Z,22.97
2018-11-27T18:54:02.002Z,21.40
2018-11-27T18:56:36.562Z,22.13
2018-11-27T18:59:11.083Z,21.57
2018-11-27T19:01:46.323Z,21.07
2018-11-27T19:04:22.051Z,21.30
2018-11-27T19:06:56.532Z,21.43
2018-11-27T19:09:31.779Z,20.17
2018-11-27T19:12:06.569Z,22.43
2018-11-27T19:14:40.954Z,21.17
2018-11-27T19:17:15.291Z,20.73
2018-11-27T19:19:49.610Z,30.30
2018-11-27T19:22:24.040Z,23.93
2018-11-27T19:24:58.820Z,23.87
2018-11-27T19:27:33.526Z,22.17
2018-11-27T19:30:18.250Z,21.37
2018-11-27T19:32:52.708Z,20.97
2018-11-27T19:35:27.566Z,20.50
2018-11-27T19:38:02.058Z,21.63
2018-11-27T19:40:36.889Z,20.90
2018-11-27T19:43:11.751Z,19.93
2018-11-27T19:45:47.147Z,20.13
2018-11-27T19:48:21.932Z,21.43
2018-11-27T19:50:56.559Z,20.17
2018-11-27T19:53:30.955Z,23.00
2018-11-27T19:56:06.760Z,21.53
2018-11-27T19:58:41.222Z,21.47
2018-11-27T20:01:15.663Z,21.13
2018-11-27T20:03:50.450Z,34.77
2018-11-27T20:06:25.591Z,24.07
2018-11-27T20:09:00.366Z,23.80
2018-11-27T20:11:34.923Z,23.37
2018-11-27T20:14:09.839Z,22.77
2018-11-27T20:16:44.224Z,22.33
2018-11-27T20:19:19.160Z,22.47
2018-11-27T20:21:54.043Z,21.07
2018-11-27T20:24:29.177Z,21.77
2018-11-27T20:27:04.243Z,22.07
2018-11-27T20:29:38.636Z,22.53
2018-11-27T20:32:13.427Z,21.10
2018-11-27T20:34:48.320Z,21.20
2018-11-27T20:37:23.590Z,21.50
2018-11-27T20:39:58.643Z,21.63
2018-11-27T20:42:33.351Z,20.73
2018-11-27T20:45:19.177Z,21.33
2018-11-27T20:47:54.532Z,20.97
2018-11-27T20:50:28.982Z,30.03
2018-11-27T20:53:03.630Z,24.13
2018-11-27T20:55:38.131Z,35.03
2018-11-27T20:58:13.310Z,32.93
2018-11-27T21:00:49.759Z,25.47
2018-11-27T21:03:24.906Z,30.37
2018-11-27T21:06:00.243Z,28.83
2018-11-27T21:08:34.596Z,24.03
2018-11-27T21:11:09.621Z,24.27
2018-11-27T21:13:44.253Z,24.50
2018-11-27T21:16:18.899Z,24.70
2018-11-27T21:18:53.594Z,23.53
2018-11-27T21:21:28.094Z,21.80
2018-11-27T21:24:02.799Z,21.37
2018-11-27T21:26:37.233Z,21.70
2018-11-27T21:29:11.562Z,21.47
2018-11-27T21:31:46.880Z,21.93
2018-11-27T21:34:26.343Z,22.33
2018-11-27T21:37:01.319Z,24.23
2018-11-27T21:39:41.414Z,23.53
2018-11-27T21:42:17.458Z,30.00
2018-11-27T21:44:52.010Z,40.60
2018-11-27T21:47:26.915Z,40.57
2018-11-27T21:50:02.463Z,29.33
2018-11-27T21:52:37.087Z,27.27
2018-11-27T21:55:13.283Z,26.63
2018-11-27T21:57:47.670Z,25.23
2018-11-27T22:00:23.867Z,23.93
2018-11-27T22:02:59.091Z,23.00
2018-11-27T22:05:33.648Z,22.00
2018-11-27T22:08:09.139Z,22.67
2018-11-27T22:10:45.745Z,22.07
2018-11-27T22:13:20.308Z,21.63
2018-11-27T22:15:55.231Z,21.93
2018-11-27T22:18:29.823Z,21.50
2018-11-27T22:21:05.237Z,21.30
2018-11-27T22:23:39.541Z,22.00
2018-11-27T22:26:14.156Z,21.17
2018-11-27T22:28:49.199Z,21.30
2018-11-27T22:31:24.222Z,21.83
2018-11-27T22:33:58.648Z,20.67
2018-11-27T22:36:34.226Z,20.40
2018-11-27T22:39:09.667Z,20.40
2018-11-27T22:41:44.383Z,20.07
2018-11-27T22:44:19.126Z,21.43
2018-11-27T22:46:53.911Z,23.97
2018-11-27T22:49:28.353Z,22.27
2018-11-27T22:52:03.047Z,21.57
2018-11-27T22:54:37.704Z,21.97
2018-11-27T22:57:12.199Z,21.73
2018-11-27T22:59:46.631Z,22.90
2018-11-27T23:02:20.919Z,23.13
2018-11-27T23:04:55.755Z,22.60
2018-11-27T23:07:35.495Z,21.33
2018-11-27T23:10:10.489Z,22.20
2018-11-27T23:12:45.174Z,21.63
2018-11-27T23:15:21.519Z,22.10
2018-11-27T23:17:56.293Z,21.10
2018-11-27T23:20:30.868Z,21.73
2018-11-27T23:23:05.473Z,20.97
2018-11-27T23:25:40.296Z,20.90
2018-11-27T23:28:15.199Z,20.57
2018-11-27T23:30:49.902Z,21.50
2018-11-27T23:33:24.685Z,21.27
2018-11-27T23:35:59.271Z,20.03
2018-11-27T23:38:34.108Z,20.87
2018-11-27T23:41:08.643Z,20.80
2018-11-27T23:43:43.028Z,21.83
2018-11-27T23:46:17.479Z,20.97
2018-11-27T23:48:51.988Z,20.97
2018-11-27T23:51:27.159Z,21.77
2018-11-27T23:54:01.820Z,20.90
2018-11-27T23:56:36.526Z,21.23
2018-11-27T23:59:11.098Z,21.63
